Time;durP1;ratioP1;P1;durP2;ratioP2;P2;SDS_P1;SDS_P2;PMS_P1;PMS_P2;Temp;Humidity;BMP_temperature;BMP_pressure;BME280_temperature;BME280_humidity;BME280_pressure;Samples;Min_cycle;Max_cycle;Signal;HPM_P1;HPM_P2
2022/11/14 00:01:32;;;;;;;15.63;9.80;;;;;;;12.97;71.34;101549.31;5052459;28;20079;-81
2022/11/14 00:04:36;;;;;;;13.85;9.95;;;;;;;13.00;71.66;101545.97;5046705;28;20044;-81
2022/11/14 00:07:39;;;;;;;13.80;8.88;;;;;;;12.97;72.71;101537.59;5032607;28;20052;-80
2022/11/14 00:10:44;;;;;;;13.95;10.15;;;;;;;12.99;72.93;101540.81;5033229;28;20045;-81
2022/11/14 00:13:48;;;;;;;9.05;7.03;;;;;;;12.95;72.44;101535.19;5032978;28;20057;-81
2022/11/14 00:16:51;;;;;;;12.30;8.23;;;;;;;12.96;72.33;101535.97;5043259;28;20531;-80
2022/11/14 00:19:55;;;;;;;14.07;9.50;;;;;;;13.02;72.70;101543.72;5052800;28;20056;-81
2022/11/14 00:22:58;;;;;;;13.73;9.35;;;;;;;13.10;71.96;101539.47;5052791;28;20539;-80
2022/11/14 00:26:02;;;;;;;12.32;9.27;;;;;;;13.11;72.33;101539.16;5051388;28;20044;-80
2022/11/14 00:29:05;;;;;;;14.57;9.82;;;;;;;13.08;71.36;101538.94;5032918;28;20065;-79
2022/11/14 00:32:09;;;;;;;14.98;9.48;;;;;;;13.08;71.13;101539.75;5032615;28;20519;-80
2022/11/14 00:35:12;;;;;;;13.48;8.43;;;;;;;13.01;70.91;101542.13;5032673;28;20053;-81
2022/11/14 00:38:15;;;;;;;11.90;8.05;;;;;;;12.97;71.25;101543.03;5046530;28;20416;-80
2022/11/14 00:41:19;;;;;;;12.10;9.05;;;;;;;12.99;71.16;101544.38;5052520;28;20044;-81
2022/11/14 00:44:22;;;;;;;13.15;9.23;;;;;;;12.97;70.71;101540.31;5052436;28;20526;-80
2022/11/14 00:47:25;;;;;;;11.30;8.25;;;;;;;12.86;70.86;101546.03;5046995;28;20036;-80
2022/11/14 00:50:28;;;;;;;13.57;9.20;;;;;;;12.79;71.65;101540.22;5032387;28;20057;-79
2022/11/14 00:53:32;;;;;;;12.52;9.60;;;;;;;12.76;71.56;101543.53;5032209;28;20049;-79
2022/11/14 00:56:35;;;;;;;12.68;9.38;;;;;;;12.73;71.86;101541.44;5033093;28;20045;-80
2022/11/14 00:59:38;;;;;;;15.48;9.02;;;;;;;12.62;73.15;101545.53;5032706;28;20056;-81
2022/11/14 01:02:42;;;;;;;11.85;9.10;;;;;;;12.50;74.53;101547.97;5052033;28;20052;-81
2022/11/14 01:05:48;;;;;;;11.82;8.57;;;;;;;12.67;73.29;101542.66;5048301;28;20040;-80
2022/11/14 01:08:51;;;;;;;12.23;8.82;;;;;;;12.71;71.88;101538.19;5043007;28;20064;-79
2022/11/14 01:11:55;;;;;;;10.45;7.90;;;;;;;12.82;71.40;101534.13;5032482;28;20049;-81
2022/11/14 01:14:58;;;;;;;11.57;8.63;;;;;;;12.88;70.99;101539.44;5049822;28;20049;-80
2022/11/14 01:18:02;;;;;;;10.27;7.57;;;;;;;12.80;70.72;101530.88;5051236;28;20406;-80
2022/11/14 01:21:08;;;;;;;12.07;8.05;;;;;;;12.85;70.38;101530.75;5032380;28;20056;-80
2022/11/14 01:24:12;;;;;;;11.75;8.05;;;;;;;12.82;70.25;101528.66;5046288;28;20033;-81
2022/11/14 01:27:15;;;;;;;12.13;7.90;;;;;;;12.82;70.17;101533.31;5032067;28;20120;-80
2022/11/14 01:30:19;;;;;;;10.02;7.32;;;;;;;12.91;70.37;101530.63;5043867;28;20045;-81
2022/11/14 01:33:23;;;;;;;10.88;8.05;;;;;;;12.94;69.50;101524.56;5031998;28;20053;-80
2022/11/14 01:36:26;;;;;;;9.60;7.32;;;;;;;12.98;69.26;101528.28;5031863;28;20045;-80
2022/11/14 01:39:29;;;;;;;10.10;7.43;;;;;;;12.90;68.76;101512.66;5036049;28;20052;-80
2022/11/14 01:42:33;;;;;;;11.23;8.00;;;;;;;12.90;69.56;101513.44;5064134;28;20515;-80
2022/11/14 01:45:50;;;;;;;12.68;8.50;;;;;;;12.97;69.91;101518.47;5072304;28;20483;-79
2022/11/14 01:49:12;;;;;;;12.05;7.78;;;;;;;12.93;70.83;101507.38;5065905;28;20060;-81
2022/11/14 01:52:21;;;;;;;11.07;7.43;;;;;;;12.89;70.95;101505.59;5031475;28;20041;-81
2022/11/14 01:55:26;;;;;;;12.88;8.07;;;;;;;12.84;70.24;101503.78;5031881;28;20053;-80
2022/11/14 01:58:30;;;;;;;10.30;7.18;;;;;;;12.85;70.69;101500.72;5041630;28;20641;-81
2022/11/14 02:01:40;;;;;;;9.07;6.43;;;;;;;12.84;70.36;101503.78;5046275;28;20049;-82
2022/11/14 02:04:53;;;;;;;12.85;8.68;;;;;;;12.89;69.42;101498.22;5052014;28;20068;-81
2022/11/14 02:07:57;;;;;;;12.90;8.00;;;;;;;12.82;68.88;101504.09;5052429;28;20037;-82
2022/11/14 02:11:00;;;;;;;14.13;8.70;;;;;;;12.81;68.55;101497.03;5045320;28;20041;-81
2022/11/14 02:14:05;;;;;;;12.43;8.32;;;;;;;12.82;68.03;101498.63;5032622;28;20037;-83
2022/11/14 02:17:09;;;;;;;13.13;8.43;;;;;;;12.62;69.57;101490.94;5051420;28;20056;-82
2022/11/14 02:20:12;;;;;;;12.20;8.60;;;;;;;12.72;69.00;101496.16;5051735;28;20037;-80
2022/11/14 02:23:25;;;;;;;12.85;7.57;;;;;;;12.79;68.28;101488.34;5050816;28;20040;-82
2022/11/14 02:26:29;;;;;;;18.80;8.77;;;;;;;12.78;68.66;101489.47;5038712;28;20041;-83
2022/11/14 02:29:34;;;;;;;17.15;9.25;;;;;;;12.83;68.49;101483.06;5051544;28;20055;-80
2022/11/14 02:32:37;;;;;;;17.45;9.25;;;;;;;12.83;68.49;101486.59;5041740;28;20049;-78
2022/11/14 02:35:40;;;;;;;17.88;8.88;;;;;;;12.84;68.52;101487.41;5035368;28;20523;-78
2022/11/14 02:38:44;;;;;;;12.70;8.88;;;;;;;12.80;68.54;101502.78;5034946;28;20049;-78
2022/11/14 02:41:49;;;;;;;11.50;8.10;;;;;;;12.79;68.79;101504.72;5036630;28;20050;-78
2022/11/14 02:44:52;;;;;;;14.27;8.75;;;;;;;12.79;69.03;101506.66;5054635;28;20064;-79
2022/11/14 02:47:56;;;;;;;12.93;8.40;;;;;;;12.74;68.68;101504.84;5054473;28;20037;-78
2022/11/14 02:50:59;;;;;;;14.95;9.52;;;;;;;12.74;68.68;101502.13;5054984;28;20514;-77
2022/11/14 02:54:03;;;;;;;14.07;8.68;;;;;;;12.74;68.60;101504.03;5052986;28;20048;-78
2022/11/14 02:57:06;;;;;;;12.00;8.30;;;;;;;12.78;68.93;101499.56;5054289;28;20658;-78
2022/11/14 03:00:10;;;;;;;13.85;9.25;;;;;;;12.75;68.80;101495.53;5054628;28;20052;-77
2022/11/14 03:03:13;;;;;;;13.60;8.35;;;;;;;12.72;68.84;101496.16;5046123;28;20048;-78
2022/11/14 03:06:16;;;;;;;12.10;8.52;;;;;;;12.79;69.24;101496.53;5034311;28;20042;-77
2022/11/14 03:09:19;;;;;;;12.25;8.27;;;;;;;12.86;69.52;101496.88;5048780;28;20045;-77
2022/11/14 03:12:23;;;;;;;11.45;7.25;;;;;;;12.84;69.47;101493.69;5048259;28;20045;-78
2022/11/14 03:15:26;;;;;;;11.63;7.40;;;;;;;12.82;69.89;101495.09;5054409;28;20073;-78
2022/11/14 03:18:29;;;;;;;11.55;7.57;;;;;;;12.84;69.19;101490.16;5054032;28;20056;-76
2022/11/14 03:21:33;;;;;;;12.18;7.93;;;;;;;12.88;69.54;101488.41;5048232;28;20527;-76
2022/11/14 03:24:36;;;;;;;17.45;7.75;;;;;;;12.89;69.78;101495.47;5034631;28;20415;-78
2022/11/14 03:27:40;;;;;;;11.30;8.25;;;;;;;12.92;69.54;101494.03;5034195;28;20607;-78
2022/11/14 03:30:45;;;;;;;10.50;7.55;;;;;;;12.96;69.60;101493.09;5035161;28;20048;-78
2022/11/14 03:33:48;;;;;;;9.95;7.03;;;;;;;12.93;69.23;101490.19;5053270;28;20033;-77
2022/11/14 03:36:51;;;;;;;12.13;7.03;;;;;;;12.92;69.63;101492.13;5053958;28;20048;-75
2022/11/14 03:39:55;;;;;;;10.45;7.00;;;;;;;12.93;69.46;101491.00;5053810;28;20052;-77
2022/11/14 03:42:58;;;;;;;10.50;7.25;;;;;;;12.92;69.72;101481.19;5042912;28;20065;-77
2022/11/14 03:46:02;;;;;;;9.63;6.38;;;;;;;12.91;69.64;101482.31;5034108;28;20041;-76
2022/11/14 03:49:06;;;;;;;9.77;6.53;;;;;;;12.92;69.41;101494.84;5033624;28;20056;-77
2022/11/14 03:52:10;;;;;;;10.35;6.65;;;;;;;12.94;69.61;101491.81;5034984;28;20060;-77
2022/11/14 03:55:15;;;;;;;13.45;7.30;;;;;;;12.91;69.66;101484.22;5033528;28;20033;-77
2022/11/14 03:58:18;;;;;;;10.55;6.95;;;;;;;12.91;69.39;101476.84;5033601;28;20409;-77
2022/11/14 04:01:21;;;;;;;8.43;6.07;;;;;;;12.86;69.41;101480.50;5033834;28;20527;-77
2022/11/14 04:04:25;;;;;;;8.98;6.32;;;;;;;12.92;69.16;101485.84;5046795;28;20056;-75
2022/11/14 04:07:29;;;;;;;9.02;6.43;;;;;;;12.96;69.77;101479.44;5053237;28;20048;-78
2022/11/14 04:10:32;;;;;;;9.75;6.15;;;;;;;12.89;68.76;101481.03;5036374;28;20532;-77
2022/11/14 04:13:35;;;;;;;9.88;6.70;;;;;;;12.81;69.33;101472.47;5033040;28;20052;-77
2022/11/14 04:16:39;;;;;;;11.57;7.53;;;;;;;12.89;69.28;101476.38;5054042;28;20071;-78
2022/11/14 04:19:42;;;;;;;9.32;6.45;;;;;;;12.91;69.01;101485.03;5073077;28;20051;-77
2022/11/14 04:22:45;;;;;;;9.32;6.00;;;;;;;12.90;68.82;101488.09;5045899;28;20052;-77
2022/11/14 04:25:49;;;;;;;14.25;7.15;;;;;;;12.93;68.40;101490.19;5053278;28;20056;-77
2022/11/14 04:28:52;;;;;;;10.25;6.65;;;;;;;12.83;68.08;101486.59;5053228;28;20405;-78
2022/11/14 04:31:55;;;;;;;11.00;7.00;;;;;;;12.85;67.81;101484.34;5048336;28;20611;-77
2022/11/14 04:34:58;;;;;;;9.95;6.90;;;;;;;12.88;67.70;101482.94;5032671;28;20042;-76
2022/11/14 04:38:02;;;;;;;10.43;6.82;;;;;;;12.87;67.50;101475.88;5032812;28;20127;-76
2022/11/14 04:41:06;;;;;;;6.82;5.05;;;;;;;12.83;68.27;101483.88;5033500;28;20527;-77
2022/11/14 04:44:09;;;;;;;9.65;6.78;;;;;;;12.73;68.85;101478.69;5049710;28;20064;-75
2022/11/14 04:47:13;;;;;;;10.68;7.32;;;;;;;12.75;69.19;101479.16;5052607;28;20063;-77
2022/11/14 04:50:16;;;;;;;9.40;5.88;;;;;;;12.80;68.98;101480.94;5052889;28;20052;-78
2022/11/14 04:53:19;;;;;;;9.55;6.47;;;;;;;12.75;69.66;101481.06;5046596;28;20044;-77
2022/11/14 04:56:24;;;;;;;10.27;7.18;;;;;;;12.80;69.23;101481.75;5045459;28;20056;-76
2022/11/14 04:59:27;;;;;;;10.50;7.15;;;;;;;12.85;68.69;101472.63;5052816;28;20036;-77
2022/11/14 05:02:31;;;;;;;9.85;7.13;;;;;;;12.81;68.88;101477.91;5032263;28;20048;-77
2022/11/14 05:05:35;;;;;;;16.67;7.47;;;;;;;12.81;69.45;101477.09;5044644;28;20048;-77
2022/11/14 05:08:38;;;;;;;9.05;6.05;;;;;;;12.80;69.50;101487.22;5051871;28;20040;-76
2022/11/14 05:11:41;;;;;;;11.23;7.05;;;;;;;12.79;70.17;101473.91;5047532;28;20044;-78
2022/11/14 05:14:45;;;;;;;9.32;6.88;;;;;;;12.82;70.08;101478.72;5047315;28;20054;-78
2022/11/14 05:17:48;;;;;;;9.02;7.00;;;;;;;12.83;71.50;101478.41;5048126;28;20048;-76
2022/11/14 05:20:51;;;;;;;10.57;7.53;;;;;;;12.83;70.57;101481.16;5044987;28;20052;-78
2022/11/14 05:23:55;;;;;;;12.18;8.18;;;;;;;12.81;70.88;101477.09;5044642;28;20055;-76
2022/11/14 05:26:58;;;;;;;10.77;8.48;;;;;;;12.79;70.70;101473.91;5049709;28;20044;-77
2022/11/14 05:30:03;;;;;;;13.55;7.82;;;;;;;12.75;71.34;101468.22;5042909;28;20048;-77
2022/11/14 05:33:07;;;;;;;12.27;8.43;;;;;;;12.77;72.24;101473.38;5032175;28;20041;-78
2022/11/14 05:36:13;;;;;;;12.02;9.27;;;;;;;12.73;72.29;101459.56;5044920;28;20045;-77
2022/11/14 05:39:18;;;;;;;13.45;9.10;;;;;;;12.69;72.44;101474.97;5044312;28;20045;-77
2022/11/14 05:42:21;;;;;;;26.92;15.35;;;;;;;12.73;72.99;101466.94;5051250;28;20040;-78
2022/11/14 05:45:25;;;;;;;16.90;10.55;;;;;;;12.72;72.88;101468.88;5044921;28;20063;-79
2022/11/14 05:48:29;;;;;;;16.52;10.68;;;;;;;12.71;72.20;101478.16;5047193;28;20041;-79
2022/11/14 05:51:32;;;;;;;17.17;10.93;;;;;;;12.58;71.96;101470.88;5052080;28;20037;-81
2022/11/14 05:54:35;;;;;;;15.45;10.85;;;;;;;12.03;74.08;101485.78;5050906;28;20053;-75
2022/11/14 05:57:39;;;;;;;20.55;11.77;;;;;;;11.63;76.25;101487.41;5042604;28;20252;-76
2022/11/14 06:00:42;;;;;;;19.20;12.75;;;;;;;11.51;78.10;101494.16;5047700;28;20052;-78
2022/11/14 06:03:47;;;;;;;21.52;12.55;;;;;;;11.21;79.59;101492.03;5047822;28;20037;-77
2022/11/14 06:06:50;;;;;;;19.15;12.43;;;;;;;11.14;81.45;101489.69;5039274;28;20037;-75
2022/11/14 06:09:54;;;;;;;18.15;12.50;;;;;;;11.07;81.07;101489.25;5051754;28;20036;-75
2022/11/14 06:12:57;;;;;;;19.83;12.82;;;;;;;11.08;81.37;101498.22;5054703;28;20049;-78
2022/11/14 06:16:04;;;;;;;19.85;13.27;;;;;;;11.14;82.23;101506.00;5047422;28;20041;-79
2022/11/14 06:19:07;;;;;;;18.33;12.35;;;;;;;11.10;81.83;101507.72;5055064;28;20052;-76
2022/11/14 06:22:11;;;;;;;21.13;12.65;;;;;;;11.16;81.90;101508.44;5055677;28;20037;-77
2022/11/14 06:25:14;;;;;;;19.88;12.45;;;;;;;11.21;81.37;101518.44;5046260;28;20144;-77
2022/11/14 06:28:18;;;;;;;19.70;11.55;;;;;;;11.28;81.93;101516.09;5036341;28;20037;-77
2022/11/14 06:31:22;;;;;;;20.60;12.95;;;;;;;11.33;80.55;101518.75;5037181;28;20041;-78
2022/11/14 06:34:26;;;;;;;14.47;9.47;;;;;;;11.77;79.91;101529.91;5034890;28;20045;-78
2022/11/14 06:37:29;;;;;;;19.52;10.82;;;;;;;11.90;78.19;101531.81;5034962;28;20516;-78
2022/11/14 06:40:33;;;;;;;18.85;11.30;;;;;;;12.09;78.08;101541.81;5034584;28;20485;-78
2022/11/14 06:43:40;;;;;;;17.67;10.52;;;;;;;12.23;77.09;101548.06;5034713;28;20041;-78
2022/11/14 06:46:43;;;;;;;17.38;11.25;;;;;;;12.29;76.24;101550.34;5034866;28;20469;-79
2022/11/14 06:49:47;;;;;;;17.15;11.82;;;;;;;12.33;75.76;101545.09;5034938;28;20057;-78
2022/11/14 06:52:50;;;;;;;15.05;10.75;;;;;;;12.34;75.27;101544.00;5034637;28;20493;-78
2022/11/14 06:55:59;;;;;;;18.55;11.93;;;;;;;12.48;75.25;101546.69;5042383;28;20439;-77
2022/11/14 06:59:03;;;;;;;15.90;11.55;;;;;;;12.43;74.74;101540.22;5054300;28;20045;-78
2022/11/14 07:02:11;;;;;;;18.50;11.75;;;;;;;12.49;74.41;101543.66;5053185;28;20500;-79
2022/11/14 07:05:14;;;;;;;17.15;12.02;;;;;;;12.48;74.31;101552.13;5054656;28;20496;-79
2022/11/14 07:08:18;;;;;;;18.63;10.77;;;;;;;12.43;74.57;101540.22;5046179;28;20041;-78
2022/11/14 07:11:25;;;;;;;20.08;11.63;;;;;;;12.46;74.74;101555.16;5042877;28;20119;-77
2022/11/14 07:14:28;;;;;;;16.20;10.32;;;;;;;12.43;74.66;101558.50;5042519;28;20045;-78
2022/11/14 07:17:35;;;;;;;15.77;10.43;;;;;;;12.49;75.17;101561.94;5047593;28;20412;-78
2022/11/14 07:20:38;;;;;;;10.85;7.57;;;;;;;12.74;77.07;101553.16;5043256;28;20048;-78
2022/11/14 07:23:42;;;;;;;13.93;7.65;;;;;;;13.65;77.80;101565.34;5042507;28;20400;-78
2022/11/14 07:26:46;;;;;;;10.55;7.55;;;;;;;14.33;75.94;101565.84;5054013;28;20048;-78
2022/11/14 07:29:49;;;;;;;13.38;9.85;;;;;;;14.02;70.50;101560.47;5053949;28;20078;-79
2022/11/14 07:32:56;;;;;;;12.18;9.48;;;;;;;13.63;70.97;101559.38;5053309;28;20048;-80
2022/11/14 07:36:00;;;;;;;34.97;11.13;;;;;;;13.60;72.61;101560.00;5053937;28;20055;-79
2022/11/14 07:39:04;;;;;;;13.93;9.77;;;;;;;13.48;72.31;101562.50;5053555;28;20040;-78
2022/11/14 07:42:07;;;;;;;22.13;9.60;;;;;;;13.47;72.56;101568.28;5046499;28;20519;-78
2022/11/14 07:45:11;;;;;;;27.15;11.32;;;;;;;13.51;73.37;101567.34;5053755;28;20515;-79
2022/11/14 07:48:15;;;;;;;14.57;8.40;;;;;;;13.40;72.41;101570.66;5038059;28;20033;-79
2022/11/14 07:51:19;;;;;;;18.10;11.45;;;;;;;13.20;72.17;101558.34;5049508;28;20040;-79
2022/11/14 07:54:23;;;;;;;18.98;10.88;;;;;;;13.02;72.47;101553.84;5049412;28;20045;-78
2022/11/14 07:57:26;;;;;;;17.17;11.45;;;;;;;12.99;73.02;101551.75;5052918;28;20049;-77
2022/11/14 08:00:30;;;;;;;16.00;10.73;;;;;;;12.97;73.62;101549.31;5053557;28;20041;-78
2022/11/14 08:03:33;;;;;;;20.98;11.05;;;;;;;12.93;74.56;101544.78;5052956;28;20052;-78
2022/11/14 08:06:37;;;;;;;18.15;9.65;;;;;;;12.93;74.62;101542.06;5053109;28;20041;-78
2022/11/14 08:09:40;;;;;;;21.73;10.30;;;;;;;12.91;74.90;101550.56;5052996;28;20067;-79
2022/11/14 08:12:45;;;;;;;14.45;9.57;;;;;;;12.90;75.08;101538.00;5052976;28;20496;-79
2022/11/14 08:15:48;;;;;;;11.25;7.03;;;;;;;12.93;75.03;101540.13;5053731;28;20041;-77
2022/11/14 08:18:52;;;;;;;20.35;10.43;;;;;;;13.36;76.70;101540.41;5053169;28;20412;-77
2022/11/14 08:21:55;;;;;;;17.13;8.85;;;;;;;13.86;77.11;101545.63;5053156;28;20049;-78
2022/11/14 08:24:59;;;;;;;21.63;11.05;;;;;;;13.77;72.99;101555.72;5052425;28;20060;-77
2022/11/14 08:28:03;;;;;;;21.55;10.13;;;;;;;13.70;73.53;101548.00;5051871;28;20415;-79
2022/11/14 08:31:09;;;;;;;18.98;10.55;;;;;;;13.62;73.08;101557.75;5051669;28;20040;-78
2022/11/14 08:34:12;;;;;;;16.15;8.95;;;;;;;13.71;74.90;101550.38;5050038;28;20041;-78
2022/11/14 08:37:16;;;;;;;16.00;9.02;;;;;;;13.63;72.40;101548.44;5052509;28;20033;-79
2022/11/14 08:40:19;;;;;;;17.33;9.25;;;;;;;13.54;72.23;101550.34;5052929;28;20088;-77
2022/11/14 08:43:22;;;;;;;16.90;9.18;;;;;;;13.48;71.97;101548.84;5052525;28;20496;-77
2022/11/14 08:46:26;;;;;;;12.73;8.13;;;;;;;13.46;71.93;101547.56;5045367;28;20051;-76
2022/11/14 08:49:29;;;;;;;12.75;7.93;;;;;;;13.41;71.39;101545.75;5048372;28;20033;-76
2022/11/14 08:52:33;;;;;;;13.20;7.35;;;;;;;13.38;71.85;101549.13;5038003;28;20056;-76
2022/11/14 08:55:36;;;;;;;24.88;8.63;;;;;;;13.45;73.13;101557.69;5052683;28;20404;-78
2022/11/14 08:58:40;;;;;;;11.85;7.38;;;;;;;13.66;73.07;101550.53;5063341;28;20431;-76
2022/11/14 09:01:44;;;;;;;11.27;8.23;;;;;;;13.64;71.44;101558.25;5072474;28;20052;-78
2022/11/14 09:04:47;;;;;;;13.23;9.13;;;;;;;13.65;71.30;101556.34;5072300;28;20048;-78
2022/11/14 09:07:50;;;;;;;15.07;7.38;;;;;;;13.67;72.28;101549.41;5072269;28;20504;-77
2022/11/14 09:10:54;;;;;;;10.68;6.95;;;;;;;13.94;74.06;101553.84;5072171;28;20056;-76
2022/11/14 09:13:58;;;;;;;14.75;7.72;;;;;;;14.43;74.06;101552.69;5072158;28;20688;-77
2022/11/14 09:17:01;;;;;;;9.85;6.30;;;;;;;14.85;73.53;101550.28;5072069;28;20491;-78
2022/11/14 09:20:05;;;;;;;8.27;5.78;;;;;;;14.90;71.70;101550.13;5072068;28;20044;-75
2022/11/14 09:23:09;;;;;;;14.75;6.72;;;;;;;14.80;71.34;101550.47;5072096;28;20063;-77
2022/11/14 09:26:13;;;;;;;9.88;6.13;;;;;;;15.14;71.94;101555.88;5072471;28;20044;-77
2022/11/14 09:29:17;;;;;;;16.20;6.38;;;;;;;15.41;70.74;101552.78;5072373;28;20435;-77
2022/11/14 09:32:20;;;;;;;11.82;5.97;;;;;;;15.45;70.23;101546.63;5071994;28;20052;-77
2022/11/14 09:35:24;;;;;;;10.77;6.55;;;;;;;15.48;69.49;101556.94;5072207;28;20427;-77
2022/11/14 09:38:28;;;;;;;9.40;6.07;;;;;;;15.34;68.96;101552.44;5072032;28;20040;-77
2022/11/14 09:41:34;;;;;;;11.95;5.45;;;;;;;15.32;68.61;101549.25;5076368;28;20067;-77
2022/11/14 09:44:41;;;;;;;10.82;6.10;;;;;;;15.24;68.08;101541.03;5076399;28;20049;-78
2022/11/14 09:47:50;;;;;;;10.80;5.93;;;;;;;15.20;67.87;101540.09;5075909;28;20033;-78
2022/11/14 09:51:03;;;;;;;11.13;6.45;;;;;;;15.15;67.41;101538.31;5075906;28;20032;-78
2022/11/14 09:54:19;;;;;;;10.30;4.97;;;;;;;14.88;66.07;101535.97;5075533;28;20507;-77
2022/11/14 09:57:24;;;;;;;8.63;5.10;;;;;;;14.84;67.05;101532.25;5075835;28;20048;-76
2022/11/14 10:00:42;;;;;;;11.90;5.80;;;;;;;14.78;66.64;101522.59;5075591;28;20046;-77
2022/11/14 10:03:57;;;;;;;9.95;6.03;;;;;;;15.06;68.88;101534.81;5075563;28;20051;-77
2022/11/14 10:07:36;;;;;;;8.65;5.97;;;;;;;15.12;67.72;101530.75;5075464;28;20044;-78
2022/11/14 10:10:57;;;;;;;8.27;5.05;;;;;;;15.43;68.51;101537.94;5075718;28;20075;-78
2022/11/14 10:14:28;;;;;;;12.35;6.35;;;;;;;15.55;67.09;101535.31;5075236;28;20051;-77
2022/11/14 10:17:35;;;;;;;9.82;5.40;;;;;;;15.62;66.48;101533.69;5075050;28;20043;-77
2022/11/14 10:20:43;;;;;;;7.10;5.18;;;;;;;15.68;66.21;101526.09;5075210;28;20051;-77
2022/11/14 10:24:25;;;;;;;11.15;5.70;;;;;;;15.49;63.59;101522.94;5075329;28;20075;-78
2022/11/14 10:27:35;;;;;;;7.75;5.50;;;;;;;15.37;64.88;101507.97;5075345;28;20047;-78
2022/11/14 10:30:45;;;;;;;7.30;4.57;;;;;;;15.53;66.64;101504.72;5075150;28;20039;-78
2022/11/14 10:34:13;;;;;;;8.43;4.85;;;;;;;15.69;66.44;101503.03;5075112;28;20510;-78
2022/11/14 10:37:36;;;;;;;5.95;4.13;;;;;;;15.82;66.67;101491.81;5074523;28;20043;-78
2022/11/14 10:40:44;;;;;;;7.47;4.15;;;;;;;16.01;66.56;101490.56;5075216;28;20103;-78
2022/11/14 10:43:50;;;;;;;7.72;3.97;;;;;;;15.95;65.01;101489.94;5074849;28;20062;-78
2022/11/14 10:46:55;;;;;;;;;;;;;;;16.07;64.61;101489.25;5075207;28;20526;-78
2022/11/14 10:50:03;;;;;;;7.13;3.72;;;;;;;16.08;64.42;101482.63;5067771;28;19913;-78
2022/11/14 10:53:18;;;;;;;7.72;4.18;;;;;;;16.09;63.70;101485.03;5048990;28;20044;-77
2022/11/14 10:56:22;;;;;;;5.55;4.03;;;;;;;16.14;63.89;101482.09;5047831;28;20059;-77
2022/11/14 10:59:26;;;;;;;6.88;3.63;;;;;;;16.25;64.54;101469.56;5047865;28;20102;-78
2022/11/14 11:02:48;;;;;;;7.10;4.05;;;;;;;16.18;62.82;101468.50;5048287;28;20040;-77
2022/11/14 11:05:56;;;;;;;8.40;5.10;;;;;;;16.19;64.01;101468.19;5051228;28;20052;-80
2022/11/14 11:12:50;;;;;;;5.38;4.15;;;;;;;16.24;63.44;101454.25;5053725;28;20051;-78
2022/11/14 11:15:56;;;;;;;7.78;4.82;;;;;;;16.26;63.96;101449.22;5054437;28;20051;-78
2022/11/14 11:19:22;;;;;;;10.82;4.90;;;;;;;16.22;64.33;101452.97;5053783;28;20052;-78
2022/11/14 11:22:28;;;;;;;7.25;4.70;;;;;;;16.12;63.78;101450.63;5050510;28;20408;-78
2022/11/14 11:25:33;;;;;;;12.18;5.35;;;;;;;16.25;66.87;101441.34;5053979;28;20072;-77
2022/11/14 11:28:36;;;;;;;17.53;6.47;;;;;;;16.25;67.15;101444.88;5053854;28;20029;-78
2022/11/14 11:31:54;;;;;;;17.98;4.85;;;;;;;16.38;67.84;101442.19;5047333;28;20299;-78
2022/11/14 11:35:01;;;;;;;10.77;4.47;;;;;;;16.40;67.54;101442.66;5052750;28;20037;-77
2022/11/14 11:38:04;;;;;;;8.20;4.97;;;;;;;16.41;66.67;101431.31;5038569;28;20052;-78
2022/11/14 11:41:24;;;;;;;10.57;4.80;;;;;;;16.32;65.98;101427.06;5038539;28;20044;-77
2022/11/14 11:44:36;;;;;;;8.90;4.93;;;;;;;16.45;66.35;101426.78;5033605;28;20049;-79
2022/11/14 11:47:41;;;;;;;8.10;4.13;;;;;;;16.27;63.89;101420.63;5033982;28;20056;-78
2022/11/14 11:50:45;;;;;;;11.02;4.80;;;;;;;16.37;65.28;101418.63;5042658;28;20043;-78
2022/11/14 11:54:03;;;;;;;7.03;4.90;;;;;;;16.49;65.85;101424.97;5053404;28;20416;-78
2022/11/14 11:57:13;;;;;;;6.90;4.60;;;;;;;16.48;65.40;101412.38;5053483;28;20052;-78
2022/11/14 12:00:19;;;;;;;6.75;4.15;;;;;;;16.43;65.07;101417.28;5052725;28;20048;-77
2022/11/14 12:03:26;;;;;;;11.75;4.18;;;;;;;16.57;66.10;101415.03;5031898;28;20053;-78
2022/11/14 12:06:40;;;;;;;6.30;4.00;;;;;;;16.57;63.98;101413.09;5049333;28;20673;-79
2022/11/14 12:09:44;;;;;;;8.40;4.55;;;;;;;16.79;65.68;101416.63;5053163;28;20047;-78
2022/11/14 12:13:04;;;;;;;6.13;4.47;;;;;;;16.86;63.46;101414.94;5045728;28;20056;-78
2022/11/14 12:16:23;;;;;;;5.97;3.95;;;;;;;16.93;64.48;101415.16;5033094;28;20452;-78
2022/11/14 12:19:33;;;;;;;6.95;4.25;;;;;;;17.01;63.99;101413.47;5070678;22;20048;-78
2022/11/14 12:22:52;;;;;;;10.75;4.13;;;;;;;17.14;64.06;101406.03;5048621;28;20064;-78
2022/11/14 12:26:02;;;;;;;4.60;3.75;;;;;;;17.09;63.29;101407.06;5048938;28;20052;-77
2022/11/14 12:29:27;;;;;;;11.18;3.92;;;;;;;17.05;62.83;101401.44;5052316;28;20048;-78
2022/11/14 12:32:38;;;;;;;6.65;4.35;;;;;;;17.06;62.91;101408.56;5042249;28;20045;-79
2022/11/14 12:35:52;;;;;;;6.70;3.90;;;;;;;17.13;63.30;101399.72;5015140;28;20052;-77
2022/11/14 12:38:57;;;;;;;7.88;3.80;;;;;;;17.15;63.37;101399.38;5015963;28;20049;-78
2022/11/14 12:42:03;;;;;;;5.53;3.05;;;;;;;17.01;61.46;101392.28;5015629;28;20057;-79
2022/11/14 12:45:38;;;;;;;5.05;3.78;;;;;;;17.01;62.57;101389.53;5041558;28;20041;-78
2022/11/14 12:48:44;;;;;;;3.38;2.33;;;;;;;16.96;61.92;101388.97;5039841;28;20069;-79
2022/11/14 12:51:50;;;;;;;5.13;3.20;;;;;;;16.95;61.73;101377.16;5036976;28;20052;-79
2022/11/14 12:54:53;;;;;;;5.72;2.88;;;;;;;16.96;62.36;101383.47;5035251;28;20052;-77
2022/11/14 12:58:03;;;;;;;5.75;3.85;;;;;;;17.08;62.27;101384.25;5034970;28;20048;-78
2022/11/14 13:01:13;;;;;;;5.25;3.40;;;;;;;17.12;61.43;101386.34;5029140;28;20056;-78
2022/11/14 13:04:38;;;;;;;5.20;3.70;;;;;;;17.14;62.51;101384.03;5032974;28;20522;-76
2022/11/14 13:08:14;;;;;;;7.50;4.63;;;;;;;17.16;61.85;101379.00;5030864;28;20056;-77
2022/11/14 13:21:44;;;;;;;6.53;3.42;;;;;;;17.24;62.48;101369.84;5037939;28;20306;-77
2022/11/14 13:22:10;;;;;;;4.90;3.25;;;;;;;17.33;62.01;101365.81;5037101;28;20060;-76
2022/11/14 13:25:20;;;;;;;7.13;3.42;;;;;;;17.30;60.66;101357.47;5014974;28;20045;-76
2022/11/14 13:28:36;;;;;;;134.60;27.15;;;;;;;17.35;62.32;101358.03;5013963;28;20417;-78
2022/11/14 13:31:48;;;;;;;91.95;17.67;;;;;;;17.41;62.51;101353.13;5040640;28;20037;-78
2022/11/14 13:34:58;;;;;;;24.45;8.68;;;;;;;17.36;59.81;101350.59;5040162;28;20045;-77
2022/11/14 13:38:24;;;;;;;16.00;6.25;;;;;;;17.36;58.88;101356.09;5053886;28;20400;-78
2022/11/14 13:41:33;;;;;;;27.40;5.57;;;;;;;17.29;60.10;101351.16;5055216;28;20049;-78
2022/11/14 13:44:46;;;;;;;18.13;5.40;;;;;;;17.35;60.20;101354.50;5053907;28;20519;-78
2022/11/14 13:48:26;;;;;;;12.75;5.38;;;;;;;17.27;59.07;101341.69;5053885;28;20048;-79
2022/11/14 13:51:31;;;;;;;13.68;5.25;;;;;;;17.28;59.76;101341.31;5054400;28;20044;-78
2022/11/14 13:54:35;;;;;;;15.77;4.57;;;;;;;17.21;59.14;101337.56;5053736;28;20049;-77
2022/11/14 13:58:03;;;;;;;8.85;3.92;;;;;;;17.34;61.09;101334.44;5054085;28;20538;-80
2022/11/14 14:01:27;;;;;;;8.77;3.70;;;;;;;17.41;60.50;101328.38;5053829;28;20059;-78
2022/11/14 14:04:45;;;;;;;12.75;3.53;;;;;;;17.47;60.12;101329.75;5053396;28;20052;-78
2022/11/14 14:07:48;;;;;;;9.73;2.60;;;;;;;17.41;60.02;101328.38;5054288;28;20068;-81
2022/11/14 14:11:28;;;;;;;5.82;2.80;;;;;;;17.40;59.97;101326.75;5053967;28;20404;-77
2022/11/14 14:14:45;;;;;;;5.07;2.65;;;;;;;17.42;59.79;101330.75;5053731;28;20052;-78
2022/11/14 14:17:57;;;;;;;3.55;3.00;;;;;;;17.34;58.70;101331.69;5053739;28;20059;-77
2022/11/14 14:21:17;;;;;;;8.82;3.70;;;;;;;17.21;57.78;101329.31;5053486;28;20051;-77
2022/11/14 14:25:01;;;;;;;3.40;2.50;;;;;;;17.14;57.29;101320.81;5053636;28;20052;-79
2022/11/14 14:28:13;;;;;;;4.50;3.05;;;;;;;17.17;58.43;101320.16;5057721;28;20052;-80
2022/11/14 14:31:24;;;;;;;4.07;2.80;;;;;;;17.04;58.22;101311.91;5037209;28;20052;-78
2022/11/14 14:34:29;;;;;;;6.10;3.10;;;;;;;17.04;59.57;101320.16;5032859;28;20064;-77